createdAt,value
2018-02-13T00:00:16.571Z,988.69
2018-02-13T00:01:23.741Z,988.70
2018-02-13T00:02:30.586Z,988.72
2018-02-13T00:03:37.347Z,988.79
2018-02-13T00:04:44.515Z,988.74
2018-02-13T00:05:51.184Z,988.72
2018-02-13T00:06:57.873Z,988.74
2018-02-13T00:08:04.656Z,988.81
2018-02-13T00:09:11.383Z,988.74
2018-02-13T00:10:18.544Z,988.73
2018-02-13T00:11:25.691Z,988.73
2018-02-13T00:12:32.827Z,988.78
2018-02-13T00:13:39.997Z,988.73
2018-02-13T00:14:46.671Z,988.71
2018-02-13T00:15:53.943Z,988.67
2018-02-13T00:17:00.619Z,988.70
2018-02-13T00:18:07.324Z,988.68
2018-02-13T00:19:13.979Z,988.67
2018-02-13T00:20:21.144Z,988.68
2018-02-13T00:21:27.807Z,988.69
2018-02-13T00:22:34.600Z,988.69
2018-02-13T00:23:41.436Z,988.70
2018-02-13T00:24:48.127Z,988.66
2018-02-13T00:25:54.778Z,988.61
2018-02-13T00:27:01.447Z,988.65
2018-02-13T00:28:08.601Z,988.60
2018-02-13T00:29:15.777Z,988.57
2018-02-13T00:30:22.435Z,988.57
2018-02-13T00:31:29.583Z,988.55
2018-02-13T00:32:36.731Z,988.56
2018-02-13T00:33:43.435Z,988.70
2018-02-13T00:34:50.188Z,988.66
2018-02-13T00:35:57.342Z,988.69
2018-02-13T00:37:04.520Z,988.63
2018-02-13T00:38:11.179Z,988.68
2018-02-13T00:39:17.875Z,988.69
2018-02-13T00:40:24.523Z,988.74
2018-02-13T00:41:31.207Z,988.70
2018-02-13T00:42:37.882Z,988.70
2018-02-13T00:43:45.061Z,988.72
2018-02-13T00:44:52.315Z,988.68
2018-02-13T00:45:58.959Z,988.71
2018-02-13T00:47:05.714Z,988.71
2018-02-13T00:48:12.886Z,988.71
2018-02-13T00:49:20.022Z,988.73
2018-02-13T00:50:27.219Z,988.68
2018-02-13T00:51:33.897Z,988.71
2018-02-13T00:52:40.583Z,988.69
2018-02-13T00:53:47.755Z,988.66
2018-02-13T00:54:54.427Z,988.60
2018-02-13T00:56:01.134Z,988.73
2018-02-13T00:57:07.794Z,988.64
2018-02-13T00:58:14.959Z,988.58
2018-02-13T00:59:22.358Z,988.62
2018-02-13T01:00:28.991Z,988.56
2018-02-13T01:01:36.175Z,988.59
2018-02-13T01:02:42.866Z,988.57
2018-02-13T01:03:49.546Z,988.59
2018-02-13T01:04:56.222Z,988.54
2018-02-13T01:06:02.899Z,988.60
2018-02-13T01:07:09.594Z,988.57
2018-02-13T01:08:16.307Z,988.52
2018-02-13T01:09:22.967Z,988.49
2018-02-13T01:10:30.115Z,988.51
2018-02-13T01:11:37.329Z,988.54
2018-02-13T01:12:44.074Z,988.52
2018-02-13T01:13:51.563Z,988.47
2018-02-13T01:14:58.242Z,988.52
2018-02-13T01:16:05.023Z,988.50
2018-02-13T01:17:12.215Z,988.53
2018-02-13T01:18:18.866Z,988.52
2018-02-13T01:19:26.032Z,988.48
2018-02-13T01:20:32.719Z,988.52
2018-02-13T01:21:39.412Z,988.60
2018-02-13T01:22:46.108Z,988.56
2018-02-13T01:23:52.812Z,988.52
2018-02-13T01:24:59.591Z,988.51
2018-02-13T01:26:06.354Z,988.45
2018-02-13T01:27:13.046Z,988.52
2018-02-13T01:28:19.728Z,988.41
2018-02-13T01:29:26.430Z,988.43
2018-02-13T01:30:33.107Z,988.40
2018-02-13T01:31:39.885Z,988.41
2018-02-13T01:32:46.712Z,988.41
2018-02-13T01:33:53.358Z,988.45
2018-02-13T01:35:00.511Z,988.44
2018-02-13T01:36:07.679Z,988.39
2018-02-13T01:37:14.860Z,988.41
2018-02-13T01:38:21.530Z,988.38
2018-02-13T01:39:28.222Z,988.31
2018-02-13T01:40:34.927Z,988.36
2018-02-13T01:41:41.590Z,988.30
2018-02-13T01:42:48.394Z,988.34
2018-02-13T01:43:55.106Z,988.35
2018-02-13T01:45:01.776Z,988.31
2018-02-13T01:46:08.957Z,988.38
2018-02-13T01:47:15.637Z,988.34
2018-02-13T01:48:22.349Z,988.35
2018-02-13T01:49:29.030Z,988.36
2018-02-13T01:50:35.690Z,988.24
2018-02-13T01:51:42.866Z,988.31
2018-02-13T01:52:49.554Z,988.34
2018-02-13T01:53:56.240Z,988.26
2018-02-13T01:55:03.017Z,988.20
2018-02-13T01:56:09.683Z,988.21
2018-02-13T01:57:16.836Z,988.24
2018-02-13T01:58:24.004Z,988.28
2018-02-13T01:59:30.699Z,988.24
2018-02-13T02:00:37.413Z,988.27
2018-02-13T02:01:44.076Z,988.25
2018-02-13T02:02:51.249Z,988.23
2018-02-13T02:03:57.963Z,988.25
2018-02-13T02:05:05.011Z,988.18
2018-02-13T02:06:11.775Z,988.27
2018-02-13T02:07:18.478Z,988.19
2018-02-13T02:08:25.232Z,988.15
2018-02-13T02:09:31.963Z,988.12
2018-02-13T02:10:38.681Z,988.24
2018-02-13T02:11:45.384Z,988.18
2018-02-13T02:12:52.090Z,988.17
2018-02-13T02:13:58.921Z,988.15
2018-02-13T02:15:05.630Z,988.20
2018-02-13T02:16:12.346Z,988.20
2018-02-13T02:17:19.023Z,988.16
2018-02-13T02:18:25.719Z,988.17
2018-02-13T02:19:32.387Z,988.11
2018-02-13T02:20:39.218Z,988.15
2018-02-13T02:21:45.894Z,988.13
2018-02-13T02:22:52.571Z,988.12
2018-02-13T02:23:59.275Z,988.13
2018-02-13T02:25:05.972Z,988.11
2018-02-13T02:26:12.715Z,988.12
2018-02-13T02:27:19.428Z,988.07
2018-02-13T02:28:26.194Z,988.12
2018-02-13T02:29:32.887Z,988.07
2018-02-13T02:30:39.629Z,988.06
2018-02-13T02:31:46.340Z,988.16
2018-02-13T02:32:53.027Z,988.04
2018-02-13T02:33:59.751Z,988.01
2018-02-13T02:35:06.422Z,988.11
2018-02-13T02:36:13.216Z,988.03
2018-02-13T02:37:20.139Z,988.00
2018-02-13T02:38:26.815Z,988.00
2018-02-13T02:39:33.713Z,988.04
2018-02-13T02:40:40.433Z,988.05
2018-02-13T02:41:47.248Z,988.04
2018-02-13T02:42:53.919Z,987.99
2018-02-13T02:44:00.728Z,988.03
2018-02-13T02:45:07.426Z,987.94
2018-02-13T02:46:14.155Z,987.94
2018-02-13T02:47:20.835Z,988.04
2018-02-13T02:48:27.523Z,987.94
2018-02-13T02:49:34.198Z,987.91
2018-02-13T02:50:40.896Z,987.99
2018-02-13T02:51:47.603Z,987.96
2018-02-13T02:52:54.335Z,987.98
2018-02-13T02:54:01.029Z,988.00
2018-02-13T02:55:07.726Z,988.03
2018-02-13T02:56:14.475Z,988.03
2018-02-13T02:57:21.176Z,987.95
2018-02-13T02:58:27.881Z,987.98
2018-02-13T02:59:34.822Z,987.92
2018-02-13T03:00:41.512Z,987.91
2018-02-13T03:01:48.255Z,987.97
2018-02-13T03:02:54.967Z,987.93
2018-02-13T03:04:01.676Z,987.97
2018-02-13T03:05:08.511Z,987.96
2018-02-13T03:06:15.215Z,987.85
2018-02-13T03:07:21.950Z,987.84
2018-02-13T03:08:28.656Z,987.81
2018-02-13T03:09:35.315Z,987.84
2018-02-13T03:10:41.990Z,987.80
2018-02-13T03:11:48.816Z,987.81
2018-02-13T03:12:55.493Z,987.79
2018-02-13T03:14:02.663Z,987.79
2018-02-13T03:15:09.351Z,987.75
2018-02-13T03:16:16.055Z,987.76
2018-02-13T03:17:23.107Z,987.83
2018-02-13T03:18:29.811Z,987.81
2018-02-13T03:19:36.511Z,987.83
2018-02-13T03:20:43.259Z,987.78
2018-02-13T03:21:49.971Z,987.72
2018-02-13T03:22:56.782Z,987.74
2018-02-13T03:24:03.455Z,987.67
2018-02-13T03:25:10.640Z,987.70
2018-02-13T03:26:17.348Z,987.71
2018-02-13T03:27:24.074Z,987.69
2018-02-13T03:28:30.859Z,987.62
2018-02-13T03:29:37.599Z,987.70
2018-02-13T03:30:44.300Z,987.72
2018-02-13T03:31:51.032Z,987.69
2018-02-13T03:32:57.754Z,987.66
2018-02-13T03:34:04.540Z,987.73
2018-02-13T03:35:11.251Z,987.61
2018-02-13T03:36:17.942Z,987.64
2018-02-13T03:37:24.620Z,987.58
2018-02-13T03:38:31.311Z,987.63
2018-02-13T03:39:38.003Z,987.62
2018-02-13T03:40:44.674Z,987.64
2018-02-13T03:41:51.367Z,987.65
2018-02-13T03:42:58.417Z,987.63
2018-02-13T03:44:05.086Z,987.68
2018-02-13T03:45:11.802Z,987.68
2018-02-13T03:46:18.475Z,987.60
2018-02-13T03:47:25.154Z,987.67
2018-02-13T03:48:31.952Z,987.64
2018-02-13T03:49:38.606Z,987.63
2018-02-13T03:50:45.767Z,987.70
2018-02-13T03:51:52.462Z,987.61
2018-02-13T03:52:59.147Z,987.58
2018-02-13T03:54:05.875Z,987.61
2018-02-13T03:55:12.578Z,987.59
2018-02-13T03:56:19.332Z,987.64
2018-02-13T03:57:26.155Z,987.63
2018-02-13T03:58:32.864Z,987.58
2018-02-13T03:59:39.593Z,987.55
2018-02-13T04:00:46.288Z,987.51
2018-02-13T04:01:52.991Z,987.50
2018-02-13T04:02:59.808Z,987.52
2018-02-13T04:04:06.973Z,987.46
2018-02-13T04:05:13.679Z,987.53
2018-02-13T04:06:20.383Z,987.54
2018-02-13T04:07:27.065Z,987.46
2018-02-13T04:08:33.782Z,987.56
2018-02-13T04:09:40.456Z,987.56
2018-02-13T04:10:47.175Z,987.55
2018-02-13T04:11:53.980Z,987.63
2018-02-13T04:13:00.692Z,987.57
2018-02-13T04:14:07.378Z,987.50
2018-02-13T04:15:14.132Z,987.50
2018-02-13T04:16:20.856Z,987.49
2018-02-13T04:17:27.591Z,987.53
2018-02-13T04:18:34.380Z,987.41
2018-02-13T04:19:41.072Z,987.50
2018-02-13T04:20:47.776Z,987.47
2018-02-13T04:21:54.482Z,987.43
2018-02-13T04:23:01.170Z,987.43
2018-02-13T04:24:07.872Z,987.45
2018-02-13T04:25:14.558Z,987.51
2018-02-13T04:26:21.275Z,987.45
2018-02-13T04:27:28.077Z,987.41
2018-02-13T04:28:34.807Z,987.40
2018-02-13T04:29:41.515Z,987.46
2018-02-13T04:30:48.194Z,987.36
2018-02-13T04:31:54.969Z,987.47
2018-02-13T04:33:01.635Z,987.45
2018-02-13T04:34:08.322Z,987.36
2018-02-13T04:35:14.994Z,987.41
2018-02-13T04:36:21.805Z,987.43
2018-02-13T04:37:28.528Z,987.31
2018-02-13T04:38:35.199Z,987.30
2018-02-13T04:39:42.372Z,987.36
2018-02-13T04:40:49.067Z,987.27
2018-02-13T04:41:55.771Z,987.24
2018-02-13T04:43:02.462Z,987.24
2018-02-13T04:44:09.162Z,987.22
2018-02-13T04:45:16.051Z,987.25
2018-02-13T04:46:22.774Z,987.25
2018-02-13T04:47:29.455Z,987.26
2018-02-13T04:48:36.162Z,987.29
2018-02-13T04:49:42.827Z,987.25
2018-02-13T04:50:49.508Z,987.26
2018-02-13T04:51:56.215Z,987.31
2018-02-13T04:53:03.014Z,987.28
2018-02-13T04:54:09.706Z,987.35
2018-02-13T04:55:16.387Z,987.29
2018-02-13T04:56:23.163Z,987.26
2018-02-13T04:57:29.868Z,987.21
2018-02-13T04:58:36.556Z,987.25
2018-02-13T04:59:43.262Z,987.22
2018-02-13T05:00:50.055Z,987.26
2018-02-13T05:01:56.733Z,987.24
2018-02-13T05:03:03.922Z,987.23
2018-02-13T05:04:10.605Z,987.22
2018-02-13T05:05:17.300Z,987.24
2018-02-13T05:06:24.010Z,987.17
2018-02-13T05:07:30.739Z,987.24
2018-02-13T05:08:37.433Z,987.22
2018-02-13T05:09:44.603Z,987.18
2018-02-13T05:10:51.279Z,987.20
2018-02-13T05:11:57.952Z,987.16
2018-02-13T05:13:04.826Z,987.13
2018-02-13T05:14:11.523Z,987.13
2018-02-13T05:15:18.216Z,987.12
2018-02-13T05:16:24.918Z,987.09
2018-02-13T05:17:31.670Z,987.10
2018-02-13T05:18:38.358Z,987.04
2018-02-13T05:19:45.194Z,986.96
2018-02-13T05:20:51.847Z,986.99
2018-02-13T05:21:58.542Z,986.94
2018-02-13T05:23:05.252Z,987.01
2018-02-13T05:24:11.950Z,987.04
2018-02-13T05:25:18.633Z,986.95
2018-02-13T05:26:25.341Z,986.99
2018-02-13T05:27:32.026Z,986.82
2018-02-13T05:28:38.826Z,986.98
2018-02-13T05:29:45.614Z,986.95
2018-02-13T05:30:52.303Z,986.91
2018-02-13T05:31:58.994Z,986.92
2018-02-13T05:33:05.720Z,986.87
2018-02-13T05:34:12.403Z,986.82
2018-02-13T05:35:19.069Z,986.90
2018-02-13T05:36:25.835Z,986.89
2018-02-13T05:37:32.991Z,986.88
2018-02-13T05:38:39.691Z,986.86
2018-02-13T05:39:46.405Z,986.76
2018-02-13T05:40:53.111Z,986.80
2018-02-13T05:41:59.811Z,986.79
2018-02-13T05:43:06.527Z,986.83
2018-02-13T05:44:13.243Z,986.85
2018-02-13T05:45:19.915Z,986.83
2018-02-13T05:46:26.710Z,986.89
2018-02-13T05:47:33.370Z,986.84
2018-02-13T05:48:40.645Z,986.81
2018-02-13T05:49:47.463Z,986.80
2018-02-13T05:50:54.348Z,986.77
2018-02-13T05:52:01.096Z,986.71
2018-02-13T05:53:08.015Z,986.67
2018-02-13T05:54:14.776Z,986.71
2018-02-13T05:55:21.480Z,986.66
2018-02-13T05:56:28.171Z,986.66
2018-02-13T05:57:34.862Z,986.66
2018-02-13T05:58:41.576Z,986.72
2018-02-13T05:59:48.255Z,986.69
2018-02-13T06:00:54.983Z,986.68
2018-02-13T06:02:01.672Z,986.65
2018-02-13T06:03:08.358Z,986.59
2018-02-13T06:04:15.170Z,986.63
2018-02-13T06:05:21.839Z,986.72
2018-02-13T06:06:28.543Z,986.68
2018-02-13T06:07:35.226Z,986.59
2018-02-13T06:08:42.089Z,986.67
2018-02-13T06:09:48.982Z,986.61
2018-02-13T06:10:55.681Z,986.67
2018-02-13T06:12:02.433Z,986.67
2018-02-13T06:13:09.138Z,986.57
2018-02-13T06:14:15.827Z,986.55
2018-02-13T06:15:22.684Z,986.54
2018-02-13T06:16:29.406Z,986.41
2018-02-13T06:17:36.135Z,986.49
2018-02-13T06:18:42.847Z,986.51
2018-02-13T06:19:49.660Z,986.54
2018-02-13T06:20:56.533Z,986.48
2018-02-13T06:22:03.407Z,986.44
2018-02-13T06:23:10.107Z,986.41
2018-02-13T06:24:16.926Z,986.37
2018-02-13T06:25:23.718Z,986.39
2018-02-13T06:26:30.489Z,986.38
2018-02-13T06:27:37.196Z,986.39
2018-02-13T06:28:44.020Z,986.38
2018-02-13T06:29:50.718Z,986.34
2018-02-13T06:30:57.410Z,986.33
2018-02-13T06:32:04.167Z,986.39
2018-02-13T06:33:10.859Z,986.40
2018-02-13T06:34:17.570Z,986.36
2018-02-13T06:35:24.271Z,986.39
2018-02-13T06:36:31.079Z,986.38
2018-02-13T06:37:37.794Z,986.40
2018-02-13T06:38:44.519Z,986.32
2018-02-13T06:39:51.243Z,986.38
2018-02-13T06:40:57.935Z,986.38
2018-02-13T06:42:04.671Z,986.37
2018-02-13T06:43:11.400Z,986.43
2018-02-13T06:44:18.134Z,986.33
2018-02-13T06:45:24.822Z,986.38
2018-02-13T06:46:31.530Z,986.34
2018-02-13T06:47:38.247Z,986.33
2018-02-13T06:48:45.040Z,986.40
2018-02-13T06:49:51.758Z,986.43
2018-02-13T06:50:58.548Z,986.40
2018-02-13T06:52:05.253Z,986.31
2018-02-13T06:53:11.988Z,986.45
2018-02-13T06:54:18.695Z,986.43
2018-02-13T06:55:25.428Z,986.45
2018-02-13T06:56:32.130Z,986.51
2018-02-13T06:57:38.932Z,986.53
2018-02-13T06:58:45.986Z,986.48
2018-02-13T06:59:52.729Z,986.45
2018-02-13T07:00:59.415Z,986.52
2018-02-13T07:02:06.131Z,986.52
2018-02-13T07:03:13.133Z,986.43
2018-02-13T07:04:19.632Z,986.48
2018-02-13T07:05:26.365Z,986.38
2018-02-13T07:06:33.099Z,986.44
2018-02-13T07:07:39.802Z,986.43
2018-02-13T07:08:46.506Z,986.55
2018-02-13T07:09:53.236Z,986.43
2018-02-13T07:10:59.910Z,986.43
2018-02-13T07:12:06.619Z,986.38
2018-02-13T07:13:13.324Z,986.45
2018-02-13T07:14:20.039Z,986.49
2018-02-13T07:15:26.805Z,986.44
2018-02-13T07:16:33.469Z,986.47
2018-02-13T07:17:40.626Z,986.41
2018-02-13T07:18:47.869Z,986.42
2018-02-13T07:19:54.600Z,986.43
2018-02-13T07:21:01.300Z,986.42
2018-02-13T07:22:08.459Z,986.44
2018-02-13T07:23:15.215Z,986.50
2018-02-13T07:24:22.007Z,986.49
2018-02-13T07:25:28.693Z,986.50
2018-02-13T07:26:35.439Z,986.45
2018-02-13T07:27:42.116Z,986.44
2018-02-13T07:28:48.806Z,986.46
2018-02-13T07:29:55.487Z,986.46
2018-02-13T07:31:02.220Z,986.48
2018-02-13T07:32:08.880Z,986.44
2018-02-13T07:33:16.066Z,986.46
2018-02-13T07:34:22.831Z,986.41
2018-02-13T07:35:29.516Z,986.37
2018-02-13T07:36:36.373Z,986.42
2018-02-13T07:37:43.075Z,986.40
2018-02-13T07:38:50.229Z,986.33
2018-02-13T07:39:56.914Z,986.41
2018-02-13T07:41:03.716Z,986.41
2018-02-13T07:42:10.411Z,986.44
2018-02-13T07:43:17.105Z,986.43
2018-02-13T07:44:23.799Z,986.46
2018-02-13T07:45:30.461Z,986.35
2018-02-13T07:46:37.178Z,986.34
2018-02-13T07:47:43.879Z,986.32
2018-02-13T07:48:51.056Z,986.36
2018-02-13T07:49:57.724Z,986.31
2018-02-13T07:51:04.395Z,986.34
2018-02-13T07:52:11.095Z,986.38
2018-02-13T07:53:17.876Z,986.30
2018-02-13T07:54:24.545Z,986.26
2018-02-13T07:55:31.695Z,986.28
2018-02-13T07:56:38.863Z,986.26
2018-02-13T07:57:46.078Z,986.27
2018-02-13T07:58:52.774Z,986.28
2018-02-13T07:59:59.626Z,986.19
2018-02-13T08:01:06.410Z,986.27
2018-02-13T08:02:13.076Z,986.27
2018-02-13T08:03:20.285Z,986.27
2018-02-13T08:04:26.968Z,986.23
2018-02-13T08:05:33.672Z,986.25
2018-02-13T08:06:40.339Z,986.33
2018-02-13T08:07:47.089Z,986.33
2018-02-13T08:08:53.756Z,986.18
2018-02-13T08:10:00.474Z,986.28
2018-02-13T08:11:07.258Z,986.20
2018-02-13T08:12:13.936Z,986.20
2018-02-13T08:13:20.672Z,986.24
2018-02-13T08:14:27.335Z,986.18
2018-02-13T08:15:34.035Z,986.19
2018-02-13T08:16:40.767Z,986.14
2018-02-13T08:17:47.555Z,986.11
2018-02-13T08:18:54.316Z,986.10
2018-02-13T08:20:01.451Z,986.12
2018-02-13T08:21:08.599Z,986.14
2018-02-13T08:22:15.275Z,986.09
2018-02-13T08:23:21.964Z,986.09
2018-02-13T08:24:29.076Z,986.08
2018-02-13T08:25:35.816Z,986.01
2018-02-13T08:26:42.509Z,985.98
2018-02-13T08:27:49.188Z,986.01
2018-02-13T08:28:55.923Z,986.06
2018-02-13T08:30:02.588Z,985.96
2018-02-13T08:31:09.744Z,985.97
2018-02-13T08:32:17.445Z,985.98
2018-02-13T08:33:23.785Z,985.97
2018-02-13T08:34:30.633Z,985.92
2018-02-13T08:35:37.578Z,985.96
2018-02-13T08:36:44.254Z,985.86
2018-02-13T08:37:50.946Z,985.87
2018-02-13T08:38:57.612Z,985.88
2018-02-13T08:40:04.312Z,985.84
2018-02-13T08:41:11.044Z,985.89
2018-02-13T08:42:17.715Z,985.90
2018-02-13T08:43:24.857Z,985.85
2018-02-13T08:44:32.060Z,985.78
2018-02-13T08:45:38.860Z,985.85
2018-02-13T08:46:46.024Z,985.76
2018-02-13T08:47:52.680Z,985.83
2018-02-13T08:48:59.847Z,985.81
2018-02-13T08:50:07.045Z,985.73
2018-02-13T08:51:13.744Z,985.77
2018-02-13T08:52:20.446Z,985.76
2018-02-13T08:53:27.105Z,985.72
2018-02-13T08:54:33.776Z,985.78
2018-02-13T08:55:40.484Z,985.72
2018-02-13T08:56:47.144Z,985.73
2018-02-13T08:57:53.834Z,985.70
2018-02-13T08:59:01.020Z,985.69
2018-02-13T09:00:07.784Z,985.72
2018-02-13T09:01:14.454Z,985.70
2018-02-13T09:02:21.119Z,985.67
2018-02-13T09:03:28.279Z,985.63
2018-02-13T09:04:34.958Z,985.62
2018-02-13T09:05:41.679Z,985.49
2018-02-13T09:06:48.367Z,985.47
2018-02-13T09:07:55.087Z,985.47
2018-02-13T09:09:01.765Z,985.45
2018-02-13T09:10:08.575Z,985.41
2018-02-13T09:11:15.275Z,985.42
2018-02-13T09:12:21.966Z,985.44
2018-02-13T09:13:28.660Z,985.36
2018-02-13T09:14:35.351Z,985.39
2018-02-13T09:15:42.067Z,985.31
2018-02-13T09:16:49.026Z,985.38
2018-02-13T09:17:55.712Z,985.34
2018-02-13T09:19:02.424Z,985.35
2018-02-13T09:20:09.108Z,985.31
2018-02-13T09:21:15.808Z,985.33
2018-02-13T09:22:22.502Z,985.34
2018-02-13T09:23:29.190Z,985.38
2018-02-13T09:24:35.962Z,985.34
2018-02-13T09:25:42.647Z,985.23
2018-02-13T09:26:49.391Z,985.25
2018-02-13T09:27:56.076Z,985.27
2018-02-13T09:29:02.847Z,985.26
2018-02-13T09:30:09.534Z,985.26
2018-02-13T09:31:16.294Z,985.21
2018-02-13T09:32:23.009Z,985.19
2018-02-13T09:33:30.060Z,985.23
2018-02-13T09:34:36.747Z,985.16
2018-02-13T09:35:43.431Z,985.21
2018-02-13T09:36:50.108Z,985.12
2018-02-13T09:37:56.853Z,985.15
2018-02-13T09:39:03.527Z,985.15
2018-02-13T09:40:10.252Z,985.18
2018-02-13T09:41:16.956Z,985.16
2018-02-13T09:42:25.191Z,985.13
2018-02-13T09:43:30.722Z,985.15
2018-02-13T09:44:37.524Z,985.12
2018-02-13T09:45:44.209Z,985.15
2018-02-13T09:46:50.911Z,985.14
2018-02-13T09:47:57.655Z,985.13
2018-02-13T09:49:04.380Z,985.11
2018-02-13T09:50:11.059Z,985.12
2018-02-13T09:51:17.850Z,985.16
2018-02-13T09:52:24.568Z,985.14
2018-02-13T09:53:31.260Z,985.13
2018-02-13T09:54:37.963Z,985.10
2018-02-13T09:55:44.675Z,985.06
2018-02-13T09:56:51.376Z,985.03
2018-02-13T09:57:58.088Z,985.03
2018-02-13T09:59:04.840Z,985.05
2018-02-13T10:00:11.521Z,985.03
2018-02-13T10:01:18.298Z,984.97
2018-02-13T10:02:25.306Z,984.96
2018-02-13T10:03:32.019Z,984.93
2018-02-13T10:04:38.743Z,985.01
2018-02-13T10:05:45.456Z,984.96
2018-02-13T10:06:52.143Z,985.00
2018-02-13T10:07:58.870Z,984.94
2018-02-13T10:09:05.654Z,985.04
2018-02-13T10:10:12.809Z,985.02
2018-02-13T10:11:19.491Z,984.96
2018-02-13T10:12:26.178Z,984.98
2018-02-13T10:13:33.365Z,984.98
2018-02-13T10:14:40.048Z,984.92
2018-02-13T10:15:46.775Z,984.94
2018-02-13T10:16:53.944Z,984.93
2018-02-13T10:18:00.687Z,984.91
2018-02-13T10:19:07.458Z,984.87
2018-02-13T10:20:14.599Z,984.84
2018-02-13T10:21:21.343Z,984.85
2018-02-13T10:22:28.103Z,984.83
2018-02-13T10:23:34.868Z,984.77
2018-02-13T10:24:41.639Z,984.76
2018-02-13T10:25:48.331Z,984.81
2018-02-13T10:26:55.039Z,984.77
2018-02-13T10:28:01.731Z,984.76
2018-02-13T10:29:08.458Z,984.76
2018-02-13T10:30:15.123Z,984.79
2018-02-13T10:31:21.903Z,984.77
2018-02-13T10:32:28.651Z,984.82
2018-02-13T10:33:35.615Z,984.76
2018-02-13T10:34:42.815Z,984.72
2018-02-13T10:35:49.595Z,984.77
2018-02-13T10:36:56.267Z,984.73
2018-02-13T10:38:02.979Z,984.67
2018-02-13T10:39:09.759Z,984.66
2018-02-13T10:40:16.452Z,984.62
2018-02-13T10:41:23.148Z,984.61
2018-02-13T10:42:29.903Z,984.53
2018-02-13T10:43:36.559Z,984.54
2018-02-13T10:44:43.248Z,984.52
2018-02-13T10:45:49.922Z,984.53
2018-02-13T10:46:56.639Z,984.43
2018-02-13T10:48:03.354Z,984.44
2018-02-13T10:49:10.017Z,984.40
2018-02-13T10:50:16.703Z,984.35
2018-02-13T10:51:23.419Z,984.40
2018-02-13T10:52:30.184Z,984.33
2018-02-13T10:53:36.883Z,984.33
2018-02-13T10:54:43.621Z,984.34
2018-02-13T10:55:50.290Z,984.38
2018-02-13T10:56:57.000Z,984.40
2018-02-13T10:58:03.682Z,984.27
2018-02-13T10:59:10.361Z,984.30
2018-02-13T11:00:17.563Z,984.28
2018-02-13T11:01:24.526Z,984.35
2018-02-13T11:02:31.243Z,984.29
2018-02-13T11:03:38.413Z,984.32
2018-02-13T11:04:45.256Z,984.27
2018-02-13T11:05:51.989Z,984.27
2018-02-13T11:06:58.680Z,984.16
2018-02-13T11:08:05.382Z,984.25
2018-02-13T11:09:12.083Z,984.18
2018-02-13T11:10:18.799Z,984.15
2018-02-13T11:11:25.567Z,984.15
2018-02-13T11:12:32.734Z,984.24
2018-02-13T11:13:39.403Z,984.17
2018-02-13T11:14:46.575Z,984.08
2018-02-13T11:15:53.390Z,984.12
2018-02-13T11:17:00.175Z,984.18
2018-02-13T11:18:06.955Z,984.11
2018-02-13T11:19:13.719Z,984.14
2018-02-13T11:20:20.436Z,984.02
2018-02-13T11:21:27.183Z,984.05
2018-02-13T11:22:33.905Z,984.10
2018-02-13T11:23:40.652Z,984.01
2018-02-13T11:24:47.356Z,984.04
2018-02-13T11:25:54.051Z,984.05
2018-02-13T11:27:00.762Z,983.95
2018-02-13T11:28:07.484Z,984.00
2018-02-13T11:29:14.147Z,984.01
2018-02-13T11:30:20.814Z,984.06
2018-02-13T11:31:27.999Z,983.92
2018-02-13T11:32:34.760Z,983.92
2018-02-13T11:33:41.441Z,983.92
2018-02-13T11:34:48.623Z,983.93
2018-02-13T11:35:55.316Z,983.85
2018-02-13T11:37:02.067Z,983.91
2018-02-13T11:38:08.763Z,983.85
2018-02-13T11:39:15.496Z,983.82
2018-02-13T11:40:22.143Z,983.79
2018-02-13T11:41:28.892Z,983.80
2018-02-13T11:42:35.606Z,983.79
2018-02-13T11:43:42.288Z,983.79
2018-02-13T11:44:48.975Z,983.77
2018-02-13T11:45:55.651Z,983.84
2018-02-13T11:47:02.407Z,983.81
2018-02-13T11:48:09.083Z,983.79
2018-02-13T11:49:15.774Z,983.69
2018-02-13T11:50:22.526Z,983.74
2018-02-13T11:51:29.181Z,983.77
2018-02-13T11:52:36.368Z,983.78
2018-02-13T11:53:43.080Z,983.78
2018-02-13T11:54:49.779Z,983.71
2018-02-13T11:55:56.520Z,983.71
2018-02-13T11:57:03.349Z,983.67
2018-02-13T11:58:10.058Z,983.64
2018-02-13T11:59:16.786Z,983.63
2018-02-13T12:00:23.459Z,983.60
2018-02-13T12:01:30.138Z,983.65
2018-02-13T12:02:36.810Z,983.60
2018-02-13T12:03:43.635Z,983.59
2018-02-13T12:04:50.339Z,983.54
2018-02-13T12:05:57.014Z,983.60
2018-02-13T12:07:03.697Z,983.53
2018-02-13T12:08:10.529Z,983.52
2018-02-13T12:09:17.420Z,983.47
2018-02-13T12:10:24.125Z,983.47
2018-02-13T12:11:30.846Z,983.45
2018-02-13T12:12:37.544Z,983.46
2018-02-13T12:13:44.325Z,983.51
2018-02-13T12:14:51.151Z,983.45
2018-02-13T12:15:57.862Z,983.50
2018-02-13T12:17:04.561Z,983.39
2018-02-13T12:18:11.327Z,983.34
2018-02-13T12:19:18.180Z,983.32
2018-02-13T12:20:24.863Z,983.30
2018-02-13T12:21:31.564Z,983.29
2018-02-13T12:22:38.259Z,983.29
2018-02-13T12:23:44.971Z,983.29
2018-02-13T12:24:51.736Z,983.27
2018-02-13T12:25:58.443Z,983.20
2018-02-13T12:27:05.217Z,983.27
2018-02-13T12:28:11.978Z,983.15
2018-02-13T12:29:18.686Z,983.22
2018-02-13T12:30:25.531Z,983.19
2018-02-13T12:31:32.263Z,983.19
2018-02-13T12:32:39.067Z,983.12
2018-02-13T12:33:46.725Z,983.15
2018-02-13T12:34:53.256Z,983.10
2018-02-13T12:35:59.945Z,983.09
2018-02-13T12:37:06.683Z,982.98
2018-02-13T12:38:13.519Z,983.09
2018-02-13T12:39:20.338Z,982.97
2018-02-13T12:40:27.093Z,983.04
2018-02-13T12:41:33.815Z,982.98
2018-02-13T12:42:40.588Z,982.98
2018-02-13T12:43:47.279Z,982.95
2018-02-13T12:44:54.120Z,982.94
2018-02-13T12:46:00.863Z,982.87
2018-02-13T12:47:07.650Z,982.91
2018-02-13T12:48:14.355Z,982.78
2018-02-13T12:49:21.111Z,982.81
2018-02-13T12:50:27.839Z,982.76
2018-02-13T12:51:34.584Z,982.78
2018-02-13T12:52:41.323Z,982.77
2018-02-13T12:53:48.016Z,982.75
2018-02-13T12:54:54.782Z,982.73
2018-02-13T12:56:01.491Z,982.73
2018-02-13T12:57:08.230Z,982.68
2018-02-13T12:58:14.990Z,982.71
2018-02-13T12:59:21.685Z,982.71
2018-02-13T13:00:28.422Z,982.65
2018-02-13T13:01:35.176Z,982.63
2018-02-13T13:02:41.899Z,982.62
2018-02-13T13:03:48.674Z,982.66
2018-02-13T13:04:55.838Z,982.62
2018-02-13T13:06:02.692Z,982.54
2018-02-13T13:07:09.429Z,982.52
2018-02-13T13:08:16.240Z,982.54
2018-02-13T13:09:22.955Z,982.56
2018-02-13T13:10:29.835Z,982.48
2018-02-13T13:11:36.527Z,982.43
2018-02-13T13:12:43.340Z,982.51
2018-02-13T13:13:50.058Z,982.42
2018-02-13T13:14:56.751Z,982.40
2018-02-13T13:16:03.466Z,982.41
2018-02-13T13:17:10.199Z,982.50
2018-02-13T13:18:16.954Z,982.37
2018-02-13T13:19:23.679Z,982.41
2018-02-13T13:20:30.416Z,982.25
2018-02-13T13:21:37.110Z,982.25
2018-02-13T13:22:43.815Z,982.21
2018-02-13T13:23:50.504Z,982.17
2018-02-13T13:24:57.312Z,982.26
2018-02-13T13:26:04.007Z,982.22
2018-02-13T13:27:10.835Z,982.21
2018-02-13T13:28:17.646Z,982.18
2018-02-13T13:29:24.367Z,982.14
2018-02-13T13:30:31.080Z,982.24
2018-02-13T13:31:37.855Z,982.25
2018-02-13T13:32:44.704Z,982.26
2018-02-13T13:33:51.630Z,982.18
2018-02-13T13:34:58.318Z,982.21
2018-02-13T13:36:05.020Z,982.24
2018-02-13T13:37:11.740Z,982.12
2018-02-13T13:38:18.490Z,982.10
2018-02-13T13:39:25.198Z,982.04
2018-02-13T13:40:32.150Z,982.14
2018-02-13T13:41:38.870Z,982.12
2018-02-13T13:42:45.623Z,982.15
2018-02-13T13:43:52.357Z,982.11
2018-02-13T13:44:59.116Z,982.10
2018-02-13T13:46:06.022Z,982.11
2018-02-13T13:47:12.773Z,982.03
2018-02-13T13:48:19.498Z,982.06
2018-02-13T13:49:26.234Z,981.98
2018-02-13T13:50:32.962Z,981.99
2018-02-13T13:51:39.683Z,981.92
2018-02-13T13:52:46.372Z,981.95